sensor_id;sensor_type;location;lat;lon;timestamp;P1;durP1;ratioP1;P2;durP2;ratioP2
22904;SDS011;11619;50.140;8.518;2023-11-21T00:01:05;3.85;;;2.65;;
22904;SDS011;11619;50.140;8.518;2023-11-21T00:03:35;4.55;;;3.17;;
22904;SDS011;11619;50.140;8.518;2023-11-21T00:06:02;5.97;;;3.13;;
22904;SDS011;11619;50.140;8.518;2023-11-21T00:08:29;6.85;;;3.30;;
22904;SDS011;11619;50.140;8.518;2023-11-21T00:10:56;4.88;;;3.03;;
22904;SDS011;11619;50.140;8.518;2023-11-21T00:13:22;4.57;;;2.85;;
22904;SDS011;11619;50.140;8.518;2023-11-21T00:15:49;4.20;;;3.40;;
22904;SDS011;11619;50.140;8.518;2023-11-21T00:18:15;4.63;;;3.25;;
22904;SDS011;11619;50.140;8.518;2023-11-21T00:20:43;4.63;;;2.80;;
22904;SDS011;11619;50.140;8.518;2023-11-21T00:23:09;6.07;;;3.35;;
22904;SDS011;11619;50.140;8.518;2023-11-21T00:25:36;5.72;;;4.03;;
22904;SDS011;11619;50.140;8.518;2023-11-21T00:28:02;6.05;;;3.25;;
22904;SDS011;11619;50.140;8.518;2023-11-21T00:30:29;4.32;;;3.30;;
22904;SDS011;11619;50.140;8.518;2023-11-21T00:32:57;7.20;;;4.18;;
22904;SDS011;11619;50.140;8.518;2023-11-21T00:35:23;7.43;;;3.47;;
22904;SDS011;11619;50.140;8.518;2023-11-21T00:37:50;4.97;;;3.47;;
22904;SDS011;11619;50.140;8.518;2023-11-21T00:40:17;7.68;;;3.53;;
22904;SDS011;11619;50.140;8.518;2023-11-21T00:42:47;4.78;;;3.28;;
22904;SDS011;11619;50.140;8.518;2023-11-21T00:45:14;4.28;;;3.10;;
22904;SDS011;11619;50.140;8.518;2023-11-21T00:47:40;4.35;;;3.78;;
22904;SDS011;11619;50.140;8.518;2023-11-21T00:50:07;7.28;;;4.55;;
22904;SDS011;11619;50.140;8.518;2023-11-21T00:52:35;6.13;;;4.13;;
22904;SDS011;11619;50.140;8.518;2023-11-21T00:55:02;7.75;;;4.78;;
22904;SDS011;11619;50.140;8.518;2023-11-21T00:57:29;5.13;;;4.68;;
22904;SDS011;11619;50.140;8.518;2023-11-21T00:59:55;4.88;;;4.35;;
22904;SDS011;11619;50.140;8.518;2023-11-21T01:02:22;5.47;;;4.35;;
22904;SDS011;11619;50.140;8.518;2023-11-21T01:04:48;7.13;;;4.57;;
22904;SDS011;11619;50.140;8.518;2023-11-21T01:07:15;6.95;;;5.10;;
22904;SDS011;11619;50.140;8.518;2023-11-21T01:09:42;7.05;;;5.07;;
22904;SDS011;11619;50.140;8.518;2023-11-21T01:12:10;5.07;;;4.32;;
22904;SDS011;11619;50.140;8.518;2023-11-21T01:14:37;5.65;;;4.18;;
22904;SDS011;11619;50.140;8.518;2023-11-21T01:17:04;5.82;;;4.85;;
22904;SDS011;11619;50.140;8.518;2023-11-21T01:19:31;6.72;;;4.90;;
22904;SDS011;11619;50.140;8.518;2023-11-21T01:21:58;5.35;;;4.85;;
22904;SDS011;11619;50.140;8.518;2023-11-21T01:24:24;5.03;;;4.22;;
22904;SDS011;11619;50.140;8.518;2023-11-21T01:26:51;4.68;;;4.15;;
22904;SDS011;11619;50.140;8.518;2023-11-21T01:29:18;7.72;;;4.88;;
22904;SDS011;11619;50.140;8.518;2023-11-21T01:31:44;4.95;;;3.90;;
22904;SDS011;11619;50.140;8.518;2023-11-21T01:34:11;5.88;;;4.10;;
22904;SDS011;11619;50.140;8.518;2023-11-21T01:36:37;5.75;;;4.68;;
22904;SDS011;11619;50.140;8.518;2023-11-21T01:39:04;5.55;;;4.57;;
22904;SDS011;11619;50.140;8.518;2023-11-21T01:41:36;6.18;;;4.18;;
22904;SDS011;11619;50.140;8.518;2023-11-21T01:44:03;4.93;;;4.32;;
22904;SDS011;11619;50.140;8.518;2023-11-21T01:46:33;6.85;;;4.63;;
22904;SDS011;11619;50.140;8.518;2023-11-21T01:49:01;5.13;;;3.97;;
22904;SDS011;11619;50.140;8.518;2023-11-21T01:51:27;5.85;;;4.63;;
22904;SDS011;11619;50.140;8.518;2023-11-21T01:53:54;5.38;;;4.80;;
22904;SDS011;11619;50.140;8.518;2023-11-21T01:56:20;5.63;;;4.50;;
22904;SDS011;11619;50.140;8.518;2023-11-21T01:58:47;5.55;;;4.55;;
22904;SDS011;11619;50.140;8.518;2023-11-21T02:01:13;6.13;;;4.80;;
22904;SDS011;11619;50.140;8.518;2023-11-21T02:03:40;6.50;;;5.07;;
22904;SDS011;11619;50.140;8.518;2023-11-21T02:06:07;4.60;;;4.20;;
22904;SDS011;11619;50.140;8.518;2023-11-21T02:08:35;5.57;;;5.05;;
22904;SDS011;11619;50.140;8.518;2023-11-21T02:11:03;5.85;;;5.25;;
22904;SDS011;11619;50.140;8.518;2023-11-21T02:13:30;5.85;;;5.25;;
22904;SDS011;11619;50.140;8.518;2023-11-21T02:15:57;5.30;;;4.70;;
22904;SDS011;11619;50.140;8.518;2023-11-21T02:18:24;5.72;;;4.57;;
22904;SDS011;11619;50.140;8.518;2023-11-21T02:20:50;6.03;;;5.38;;
22904;SDS011;11619;50.140;8.518;2023-11-21T02:23:17;11.40;;;6.85;;
22904;SDS011;11619;50.140;8.518;2023-11-21T02:25:44;6.00;;;5.40;;
22904;SDS011;11619;50.140;8.518;2023-11-21T02:28:10;6.13;;;5.38;;
22904;SDS011;11619;50.140;8.518;2023-11-21T02:30:39;6.82;;;5.88;;
22904;SDS011;11619;50.140;8.518;2023-11-21T02:33:05;6.97;;;5.50;;
22904;SDS011;11619;50.140;8.518;2023-11-21T02:35:33;5.68;;;4.97;;
22904;SDS011;11619;50.140;8.518;2023-11-21T02:37:59;5.85;;;5.25;;
22904;SDS011;11619;50.140;8.518;2023-11-21T02:40:26;6.57;;;4.82;;
22904;SDS011;11619;50.140;8.518;2023-11-21T02:42:53;6.05;;;5.45;;
22904;SDS011;11619;50.140;8.518;2023-11-21T02:45:20;5.00;;;4.47;;
22904;SDS011;11619;50.140;8.518;2023-11-21T02:47:48;5.13;;;4.30;;
22904;SDS011;11619;50.140;8.518;2023-11-21T02:50:19;5.88;;;5.10;;
22904;SDS011;11619;50.140;8.518;2023-11-21T02:52:46;6.15;;;5.10;;
22904;SDS011;11619;50.140;8.518;2023-11-21T02:55:13;5.45;;;4.93;;
22904;SDS011;11619;50.140;8.518;2023-11-21T02:57:39;7.95;;;5.65;;
22904;SDS011;11619;50.140;8.518;2023-11-21T03:00:06;13.80;;;5.40;;
22904;SDS011;11619;50.140;8.518;2023-11-21T03:02:34;5.88;;;5.38;;
22904;SDS011;11619;50.140;8.518;2023-11-21T03:05:05;6.75;;;6.07;;
22904;SDS011;11619;50.140;8.518;2023-11-21T03:07:32;6.18;;;5.63;;
22904;SDS011;11619;50.140;8.518;2023-11-21T03:09:58;6.97;;;6.28;;
22904;SDS011;11619;50.140;8.518;2023-11-21T03:12:25;6.75;;;6.03;;
22904;SDS011;11619;50.140;8.518;2023-11-21T03:14:51;7.68;;;6.43;;
22904;SDS011;11619;50.140;8.518;2023-11-21T03:17:18;6.95;;;6.30;;
22904;SDS011;11619;50.140;8.518;2023-11-21T03:19:44;6.30;;;5.70;;
22904;SDS011;11619;50.140;8.518;2023-11-21T03:22:11;4.95;;;4.55;;
22904;SDS011;11619;50.140;8.518;2023-11-21T03:24:38;5.07;;;4.68;;
22904;SDS011;11619;50.140;8.518;2023-11-21T03:27:04;5.68;;;5.18;;
22904;SDS011;11619;50.140;8.518;2023-11-21T03:29:31;8.55;;;7.70;;
22904;SDS011;11619;50.140;8.518;2023-11-21T03:31:57;8.32;;;7.43;;
22904;SDS011;11619;50.140;8.518;2023-11-21T03:34:27;10.65;;;8.45;;
22904;SDS011;11619;50.140;8.518;2023-11-21T03:36:54;9.65;;;8.65;;
22904;SDS011;11619;50.140;8.518;2023-11-21T03:39:21;12.32;;;7.40;;
22904;SDS011;11619;50.140;8.518;2023-11-21T03:41:48;9.82;;;8.43;;
22904;SDS011;11619;50.140;8.518;2023-11-21T03:44:15;10.27;;;7.90;;
22904;SDS011;11619;50.140;8.518;2023-11-21T03:46:47;10.90;;;7.82;;
22904;SDS011;11619;50.140;8.518;2023-11-21T03:49:13;14.50;;;8.23;;
22904;SDS011;11619;50.140;8.518;2023-11-21T03:51:41;13.57;;;8.68;;
22904;SDS011;11619;50.140;8.518;2023-11-21T03:54:08;9.82;;;8.82;;
22904;SDS011;11619;50.140;8.518;2023-11-21T03:56:34;8.98;;;7.78;;
22904;SDS011;11619;50.140;8.518;2023-11-21T03:59:00;9.15;;;8.25;;
22904;SDS011;11619;50.140;8.518;2023-11-21T04:01:27;8.27;;;7.47;;
22904;SDS011;11619;50.140;8.518;2023-11-21T04:03:53;14.30;;;8.43;;
22904;SDS011;11619;50.140;8.518;2023-11-21T04:06:20;9.65;;;8.75;;
22904;SDS011;11619;50.140;8.518;2023-11-21T04:08:46;8.93;;;7.97;;
22904;SDS011;11619;50.140;8.518;2023-11-21T04:11:13;8.35;;;7.43;;
22904;SDS011;11619;50.140;8.518;2023-11-21T04:13:40;8.75;;;7.95;;
22904;SDS011;11619;50.140;8.518;2023-11-21T04:16:08;7.90;;;7.10;;
22904;SDS011;11619;50.140;8.518;2023-11-21T04:18:36;7.78;;;6.30;;
22904;SDS011;11619;50.140;8.518;2023-11-21T04:21:02;7.82;;;7.13;;
22904;SDS011;11619;50.140;8.518;2023-11-21T04:23:30;6.72;;;6.13;;
22904;SDS011;11619;50.140;8.518;2023-11-21T04:25:58;7.28;;;6.40;;
22904;SDS011;11619;50.140;8.518;2023-11-21T04:28:25;7.57;;;6.80;;
22904;SDS011;11619;50.140;8.518;2023-11-21T04:30:51;8.13;;;7.28;;
22904;SDS011;11619;50.140;8.518;2023-11-21T04:33:18;7.85;;;6.53;;
22904;SDS011;11619;50.140;8.518;2023-11-21T04:35:44;6.75;;;6.15;;
22904;SDS011;11619;50.140;8.518;2023-11-21T04:38:11;9.80;;;6.78;;
22904;SDS011;11619;50.140;8.518;2023-11-21T04:40:38;7.18;;;6.20;;
22904;SDS011;11619;50.140;8.518;2023-11-21T04:43:04;9.30;;;6.80;;
22904;SDS011;11619;50.140;8.518;2023-11-21T04:45:31;7.72;;;6.75;;
22904;SDS011;11619;50.140;8.518;2023-11-21T04:47:58;6.97;;;5.65;;
22904;SDS011;11619;50.140;8.518;2023-11-21T04:50:25;5.95;;;5.35;;
22904;SDS011;11619;50.140;8.518;2023-11-21T04:52:53;6.90;;;5.60;;
22904;SDS011;11619;50.140;8.518;2023-11-21T04:55:20;6.25;;;5.38;;
22904;SDS011;11619;50.140;8.518;2023-11-21T04:57:46;6.22;;;5.70;;
22904;SDS011;11619;50.140;8.518;2023-11-21T05:00:13;5.68;;;5.18;;
22904;SDS011;11619;50.140;8.518;2023-11-21T05:02:40;7.28;;;5.25;;
22904;SDS011;11619;50.140;8.518;2023-11-21T05:05:08;5.65;;;4.65;;
22904;SDS011;11619;50.140;8.518;2023-11-21T05:07:36;5.00;;;4.60;;
22904;SDS011;11619;50.140;8.518;2023-11-21T05:10:04;4.85;;;4.45;;
22904;SDS011;11619;50.140;8.518;2023-11-21T05:12:34;6.28;;;5.18;;
22904;SDS011;11619;50.140;8.518;2023-11-21T05:15:04;6.90;;;4.95;;
22904;SDS011;11619;50.140;8.518;2023-11-21T05:17:37;6.70;;;4.50;;
22904;SDS011;11619;50.140;8.518;2023-11-21T05:20:05;6.53;;;4.85;;
22904;SDS011;11619;50.140;8.518;2023-11-21T05:22:34;5.75;;;5.25;;
22904;SDS011;11619;50.140;8.518;2023-11-21T05:25:01;6.68;;;5.72;;
22904;SDS011;11619;50.140;8.518;2023-11-21T05:27:29;5.10;;;4.60;;
22904;SDS011;11619;50.140;8.518;2023-11-21T05:30:00;6.47;;;5.47;;
22904;SDS011;11619;50.140;8.518;2023-11-21T05:32:27;6.78;;;6.07;;
22904;SDS011;11619;50.140;8.518;2023-11-21T05:34:54;6.72;;;5.50;;
22904;SDS011;11619;50.140;8.518;2023-11-21T05:37:21;7.60;;;6.90;;
22904;SDS011;11619;50.140;8.518;2023-11-21T05:39:49;7.40;;;6.68;;
22904;SDS011;11619;50.140;8.518;2023-11-21T05:42:15;6.43;;;5.82;;
22904;SDS011;11619;50.140;8.518;2023-11-21T05:44:43;6.32;;;5.72;;
22904;SDS011;11619;50.140;8.518;2023-11-21T05:47:09;7.10;;;6.32;;
22904;SDS011;11619;50.140;8.518;2023-11-21T05:49:36;7.05;;;6.00;;
22904;SDS011;11619;50.140;8.518;2023-11-21T05:52:03;6.65;;;6.05;;
22904;SDS011;11619;50.140;8.518;2023-11-21T05:54:29;8.13;;;6.75;;
22904;SDS011;11619;50.140;8.518;2023-11-21T05:56:56;9.75;;;8.07;;
22904;SDS011;11619;50.140;8.518;2023-11-21T05:59:22;9.48;;;7.75;;
22904;SDS011;11619;50.140;8.518;2023-11-21T06:01:49;8.75;;;7.07;;
22904;SDS011;11619;50.140;8.518;2023-11-21T06:04:15;8.75;;;7.72;;
22904;SDS011;11619;50.140;8.518;2023-11-21T06:06:42;8.35;;;6.18;;
22904;SDS011;11619;50.140;8.518;2023-11-21T06:09:09;7.05;;;6.00;;
22904;SDS011;11619;50.140;8.518;2023-11-21T06:11:35;6.97;;;6.22;;
22904;SDS011;11619;50.140;8.518;2023-11-21T06:14:02;8.02;;;6.28;;
22904;SDS011;11619;50.140;8.518;2023-11-21T06:16:28;12.85;;;6.93;;
22904;SDS011;11619;50.140;8.518;2023-11-21T06:18:55;6.72;;;5.72;;
22904;SDS011;11619;50.140;8.518;2023-11-21T06:21:21;8.30;;;5.53;;
22904;SDS011;11619;50.140;8.518;2023-11-21T06:23:48;5.80;;;4.35;;
22904;SDS011;11619;50.140;8.518;2023-11-21T06:26:19;4.35;;;3.30;;
22904;SDS011;11619;50.140;8.518;2023-11-21T06:28:46;4.03;;;3.38;;
22904;SDS011;11619;50.140;8.518;2023-11-21T06:31:13;4.60;;;3.10;;
22904;SDS011;11619;50.140;8.518;2023-11-21T06:33:40;3.58;;;3.25;;
22904;SDS011;11619;50.140;8.518;2023-11-21T06:36:07;4.80;;;2.95;;
22904;SDS011;11619;50.140;8.518;2023-11-21T06:38:34;3.63;;;3.03;;
22904;SDS011;11619;50.140;8.518;2023-11-21T06:41:00;4.38;;;2.72;;
22904;SDS011;11619;50.140;8.518;2023-11-21T06:43:30;2.72;;;2.53;;
22904;SDS011;11619;50.140;8.518;2023-11-21T06:45:57;5.15;;;3.47;;
22904;SDS011;11619;50.140;8.518;2023-11-21T06:48:24;3.10;;;2.75;;
22904;SDS011;11619;50.140;8.518;2023-11-21T06:50:51;5.15;;;3.00;;
22904;SDS011;11619;50.140;8.518;2023-11-21T06:53:18;4.95;;;3.50;;
22904;SDS011;11619;50.140;8.518;2023-11-21T06:55:45;4.25;;;2.83;;
22904;SDS011;11619;50.140;8.518;2023-11-21T06:58:12;4.65;;;2.70;;
22904;SDS011;11619;50.140;8.518;2023-11-21T07:00:38;3.67;;;1.85;;
22904;SDS011;11619;50.140;8.518;2023-11-21T07:03:05;2.42;;;2.08;;
22904;SDS011;11619;50.140;8.518;2023-11-21T07:05:31;2.38;;;1.65;;
22904;SDS011;11619;50.140;8.518;2023-11-21T07:07:58;2.55;;;1.77;;
22904;SDS011;11619;50.140;8.518;2023-11-21T07:10:30;3.30;;;2.30;;
22904;SDS011;11619;50.140;8.518;2023-11-21T07:12:57;2.50;;;2.00;;
22904;SDS011;11619;50.140;8.518;2023-11-21T07:15:23;2.42;;;1.58;;
22904;SDS011;11619;50.140;8.518;2023-11-21T07:17:51;2.45;;;1.80;;
22904;SDS011;11619;50.140;8.518;2023-11-21T07:20:20;5.53;;;2.00;;
22904;SDS011;11619;50.140;8.518;2023-11-21T07:22:47;3.30;;;2.10;;
22904;SDS011;11619;50.140;8.518;2023-11-21T07:25:14;2.78;;;1.85;;
22904;SDS011;11619;50.140;8.518;2023-11-21T07:27:40;2.05;;;1.80;;
22904;SDS011;11619;50.140;8.518;2023-11-21T07:30:07;3.10;;;1.75;;
22904;SDS011;11619;50.140;8.518;2023-11-21T07:32:36;3.13;;;1.60;;
22904;SDS011;11619;50.140;8.518;2023-11-21T07:35:06;2.58;;;1.90;;
22904;SDS011;11619;50.140;8.518;2023-11-21T07:37:34;3.65;;;1.88;;
22904;SDS011;11619;50.140;8.518;2023-11-21T07:40:00;6.05;;;2.10;;
22904;SDS011;11619;50.140;8.518;2023-11-21T07:42:27;5.88;;;2.13;;
22904;SDS011;11619;50.140;8.518;2023-11-21T07:44:53;3.13;;;2.42;;
22904;SDS011;11619;50.140;8.518;2023-11-21T07:47:20;4.55;;;2.40;;
22904;SDS011;11619;50.140;8.518;2023-11-21T07:49:47;5.68;;;2.28;;
22904;SDS011;11619;50.140;8.518;2023-11-21T07:52:13;5.05;;;2.50;;
22904;SDS011;11619;50.140;8.518;2023-11-21T07:54:42;4.70;;;2.35;;
22904;SDS011;11619;50.140;8.518;2023-11-21T07:57:09;3.80;;;2.47;;
22904;SDS011;11619;50.140;8.518;2023-11-21T07:59:37;3.70;;;2.67;;
22904;SDS011;11619;50.140;8.518;2023-11-21T08:02:04;4.68;;;2.28;;
22904;SDS011;11619;50.140;8.518;2023-11-21T08:04:30;6.13;;;2.83;;
22904;SDS011;11619;50.140;8.518;2023-11-21T08:07:00;6.22;;;2.63;;
22904;SDS011;11619;50.140;8.518;2023-11-21T08:09:26;2.42;;;2.05;;
22904;SDS011;11619;50.140;8.518;2023-11-21T08:11:53;4.80;;;2.33;;
22904;SDS011;11619;50.140;8.518;2023-11-21T08:14:19;3.47;;;2.17;;
22904;SDS011;11619;50.140;8.518;2023-11-21T08:16:46;4.80;;;2.50;;
22904;SDS011;11619;50.140;8.518;2023-11-21T08:19:13;3.38;;;2.50;;
22904;SDS011;11619;50.140;8.518;2023-11-21T08:21:39;4.60;;;2.67;;
22904;SDS011;11619;50.140;8.518;2023-11-21T08:24:06;7.20;;;2.67;;
22904;SDS011;11619;50.140;8.518;2023-11-21T08:26:37;4.72;;;2.33;;
22904;SDS011;11619;50.140;8.518;2023-11-21T08:29:03;3.53;;;2.30;;
22904;SDS011;11619;50.140;8.518;2023-11-21T08:31:33;2.85;;;2.45;;
22904;SDS011;11619;50.140;8.518;2023-11-21T08:34:00;4.53;;;2.38;;
22904;SDS011;11619;50.140;8.518;2023-11-21T08:36:28;7.93;;;3.17;;
22904;SDS011;11619;50.140;8.518;2023-11-21T08:38:54;4.32;;;2.70;;
22904;SDS011;11619;50.140;8.518;2023-11-21T08:41:21;6.53;;;2.70;;
22904;SDS011;11619;50.140;8.518;2023-11-21T08:43:49;3.55;;;2.70;;
22904;SDS011;11619;50.140;8.518;2023-11-21T08:46:16;4.05;;;2.58;;
22904;SDS011;11619;50.140;8.518;2023-11-21T08:48:44;5.68;;;2.45;;
22904;SDS011;11619;50.140;8.518;2023-11-21T08:51:10;4.10;;;2.50;;
22904;SDS011;11619;50.140;8.518;2023-11-21T08:53:38;2.95;;;2.53;;
22904;SDS011;11619;50.140;8.518;2023-11-21T08:56:05;5.55;;;3.08;;
22904;SDS011;11619;50.140;8.518;2023-11-21T08:58:33;5.22;;;2.75;;
22904;SDS011;11619;50.140;8.518;2023-11-21T09:00:59;5.25;;;2.90;;
22904;SDS011;11619;50.140;8.518;2023-11-21T09:03:25;9.50;;;2.70;;
22904;SDS011;11619;50.140;8.518;2023-11-21T09:05:52;3.92;;;2.70;;
22904;SDS011;11619;50.140;8.518;2023-11-21T09:08:19;5.15;;;2.80;;
22904;SDS011;11619;50.140;8.518;2023-11-21T09:10:45;5.93;;;3.20;;
22904;SDS011;11619;50.140;8.518;2023-11-21T09:13:13;5.15;;;3.15;;
22904;SDS011;11619;50.140;8.518;2023-11-21T09:15:40;4.95;;;3.15;;
22904;SDS011;11619;50.140;8.518;2023-11-21T09:18:09;5.22;;;2.90;;
22904;SDS011;11619;50.140;8.518;2023-11-21T09:20:36;9.20;;;2.95;;
22904;SDS011;11619;50.140;8.518;2023-11-21T09:23:03;5.13;;;3.17;;
22904;SDS011;11619;50.140;8.518;2023-11-21T09:25:29;11.82;;;3.03;;
22904;SDS011;11619;50.140;8.518;2023-11-21T09:27:56;3.10;;;2.60;;
22904;SDS011;11619;50.140;8.518;2023-11-21T09:30:23;6.57;;;3.08;;
22904;SDS011;11619;50.140;8.518;2023-11-21T09:32:51;6.95;;;3.53;;
22904;SDS011;11619;50.140;8.518;2023-11-21T09:35:17;6.28;;;3.63;;
22904;SDS011;11619;50.140;8.518;2023-11-21T09:37:44;8.18;;;3.42;;
22904;SDS011;11619;50.140;8.518;2023-11-21T09:40:15;5.18;;;3.47;;
22904;SDS011;11619;50.140;8.518;2023-11-21T09:42:57;5.43;;;4.10;;
22904;SDS011;11619;50.140;8.518;2023-11-21T09:45:25;7.82;;;3.78;;
22904;SDS011;11619;50.140;8.518;2023-11-21T09:47:57;6.93;;;3.83;;
22904;SDS011;11619;50.140;8.518;2023-11-21T09:50:24;4.28;;;2.92;;
22904;SDS011;11619;50.140;8.518;2023-11-21T09:55:46;4.68;;;3.50;;
22904;SDS011;11619;50.140;8.518;2023-11-21T09:58:14;7.88;;;3.58;;
22904;SDS011;11619;50.140;8.518;2023-11-21T10:00:41;7.20;;;4.15;;
22904;SDS011;11619;50.140;8.518;2023-11-21T10:03:08;6.25;;;4.05;;
22904;SDS011;11619;50.140;8.518;2023-11-21T10:05:36;4.45;;;3.97;;
22904;SDS011;11619;50.140;8.518;2023-11-21T10:08:09;7.00;;;4.07;;
22904;SDS011;11619;50.140;8.518;2023-11-21T10:10:46;5.32;;;3.55;;
22904;SDS011;11619;50.140;8.518;2023-11-21T10:13:14;10.13;;;4.53;;
22904;SDS011;11619;50.140;8.518;2023-11-21T10:15:44;6.00;;;3.45;;
22904;SDS011;11619;50.140;8.518;2023-11-21T10:18:16;5.65;;;3.67;;
22904;SDS011;11619;50.140;8.518;2023-11-21T10:20:42;9.05;;;3.50;;
22904;SDS011;11619;50.140;8.518;2023-11-21T10:23:09;8.73;;;3.50;;
22904;SDS011;11619;50.140;8.518;2023-11-21T10:25:38;8.43;;;3.85;;
22904;SDS011;11619;50.140;8.518;2023-11-21T10:28:04;5.15;;;3.45;;
22904;SDS011;11619;50.140;8.518;2023-11-21T10:30:37;6.38;;;3.08;;
22904;SDS011;11619;50.140;8.518;2023-11-21T10:33:04;7.38;;;3.33;;
22904;SDS011;11619;50.140;8.518;2023-11-21T10:38:07;4.97;;;3.60;;
22904;SDS011;11619;50.140;8.518;2023-11-21T10:40:40;4.93;;;3.42;;
22904;SDS011;11619;50.140;8.518;2023-11-21T10:43:08;5.93;;;3.38;;
22904;SDS011;11619;50.140;8.518;2023-11-21T10:45:36;5.13;;;3.50;;
22904;SDS011;11619;50.140;8.518;2023-11-21T10:48:06;6.63;;;3.30;;
22904;SDS011;11619;50.140;8.518;2023-11-21T10:50:37;5.13;;;3.65;;
22904;SDS011;11619;50.140;8.518;2023-11-21T10:53:04;8.35;;;3.70;;
22904;SDS011;11619;50.140;8.518;2023-11-21T10:55:32;4.50;;;3.42;;
22904;SDS011;11619;50.140;8.518;2023-11-21T10:58:00;6.13;;;4.03;;
22904;SDS011;11619;50.140;8.518;2023-11-21T11:00:32;5.95;;;3.50;;
22904;SDS011;11619;50.140;8.518;2023-11-21T11:02:59;4.88;;;3.22;;
22904;SDS011;11619;50.140;8.518;2023-11-21T11:05:27;6.93;;;3.88;;
22904;SDS011;11619;50.140;8.518;2023-11-21T11:08:04;4.80;;;3.53;;
22904;SDS011;11619;50.140;8.518;2023-11-21T11:10:31;3.35;;;3.00;;
22904;SDS011;11619;50.140;8.518;2023-11-21T11:12:58;4.72;;;3.33;;
22904;SDS011;11619;50.140;8.518;2023-11-21T11:15:27;5.68;;;3.63;;
22904;SDS011;11619;50.140;8.518;2023-11-21T11:17:54;5.28;;;3.28;;
22904;SDS011;11619;50.140;8.518;2023-11-21T11:20:33;5.50;;;3.13;;
22904;SDS011;11619;50.140;8.518;2023-11-21T11:23:17;6.95;;;3.90;;
22904;SDS011;11619;50.140;8.518;2023-11-21T11:31:52;6.47;;;3.35;;
22904;SDS011;11619;50.140;8.518;2023-11-21T11:34:29;6.05;;;3.22;;
22904;SDS011;11619;50.140;8.518;2023-11-21T11:39:35;5.32;;;3.10;;
22904;SDS011;11619;50.140;8.518;2023-11-21T11:42:10;5.45;;;3.05;;
22904;SDS011;11619;50.140;8.518;2023-11-21T11:47:23;6.90;;;2.83;;
22904;SDS011;11619;50.140;8.518;2023-11-21T11:50:04;3.55;;;2.63;;
22904;SDS011;11619;50.140;8.518;2023-11-21T11:52:41;6.75;;;2.80;;
22904;SDS011;11619;50.140;8.518;2023-11-21T11:55:11;3.30;;;2.33;;
22904;SDS011;11619;50.140;8.518;2023-11-21T11:57:47;5.83;;;2.40;;
22904;SDS011;11619;50.140;8.518;2023-11-21T12:00:44;3.72;;;2.28;;
22904;SDS011;11619;50.140;8.518;2023-11-21T12:03:12;7.28;;;2.30;;
22904;SDS011;11619;50.140;8.518;2023-11-21T12:05:39;4.32;;;2.47;;
22904;SDS011;11619;50.140;8.518;2023-11-21T12:08:07;3.70;;;2.40;;
22904;SDS011;11619;50.140;8.518;2023-11-21T12:10:35;3.38;;;2.78;;
22904;SDS011;11619;50.140;8.518;2023-11-21T12:13:06;5.10;;;1.98;;
22904;SDS011;11619;50.140;8.518;2023-11-21T12:15:38;3.40;;;1.95;;
22904;SDS011;11619;50.140;8.518;2023-11-21T12:18:07;5.32;;;2.00;;
22904;SDS011;11619;50.140;8.518;2023-11-21T12:20:33;5.72;;;2.30;;
22904;SDS011;11619;50.140;8.518;2023-11-21T12:23:05;3.35;;;2.08;;
22904;SDS011;11619;50.140;8.518;2023-11-21T12:25:32;5.53;;;2.42;;
22904;SDS011;11619;50.140;8.518;2023-11-21T12:28:00;2.50;;;1.80;;
22904;SDS011;11619;50.140;8.518;2023-11-21T12:30:28;4.18;;;2.30;;
22904;SDS011;11619;50.140;8.518;2023-11-21T12:32:57;4.68;;;2.08;;
22904;SDS011;11619;50.140;8.518;2023-11-21T12:35:26;2.63;;;2.00;;
22904;SDS011;11619;50.140;8.518;2023-11-21T12:37:56;4.07;;;2.28;;
22904;SDS011;11619;50.140;8.518;2023-11-21T12:40:25;3.53;;;2.10;;
22904;SDS011;11619;50.140;8.518;2023-11-21T12:42:52;4.50;;;2.58;;
22904;SDS011;11619;50.140;8.518;2023-11-21T12:45:21;3.72;;;2.35;;
22904;SDS011;11619;50.140;8.518;2023-11-21T12:48:01;5.75;;;2.47;;
22904;SDS011;11619;50.140;8.518;2023-11-21T12:50:35;4.40;;;2.03;;
22904;SDS011;11619;50.140;8.518;2023-11-21T12:53:06;2.30;;;1.60;;
22904;SDS011;11619;50.140;8.518;2023-11-21T12:55:35;4.82;;;2.20;;
22904;SDS011;11619;50.140;8.518;2023-11-21T12:58:06;4.13;;;2.10;;
22904;SDS011;11619;50.140;8.518;2023-11-21T13:03:14;3.58;;;2.55;;
22904;SDS011;11619;50.140;8.518;2023-11-21T13:05:46;3.28;;;2.00;;
22904;SDS011;11619;50.140;8.518;2023-11-21T13:08:16;4.80;;;2.55;;
22904;SDS011;11619;50.140;8.518;2023-11-21T13:10:47;4.82;;;2.53;;
22904;SDS011;11619;50.140;8.518;2023-11-21T13:13:15;3.90;;;2.50;;
22904;SDS011;11619;50.140;8.518;2023-11-21T13:15:53;3.50;;;2.13;;
22904;SDS011;11619;50.140;8.518;2023-11-21T13:18:23;5.35;;;2.50;;
22904;SDS011;11619;50.140;8.518;2023-11-21T13:20:52;6.72;;;2.72;;
22904;SDS011;11619;50.140;8.518;2023-11-21T13:23:23;4.95;;;2.35;;
22904;SDS011;11619;50.140;8.518;2023-11-21T13:25:50;4.82;;;2.35;;
22904;SDS011;11619;50.140;8.518;2023-11-21T13:28:27;5.93;;;2.50;;
22904;SDS011;11619;50.140;8.518;2023-11-21T13:30:58;6.25;;;2.45;;
22904;SDS011;11619;50.140;8.518;2023-11-21T13:33:35;4.63;;;2.50;;
22904;SDS011;11619;50.140;8.518;2023-11-21T13:36:04;4.25;;;2.20;;
22904;SDS011;11619;50.140;8.518;2023-11-21T13:38:33;6.55;;;2.47;;
22904;SDS011;11619;50.140;8.518;2023-11-21T13:41:01;5.32;;;2.50;;
22904;SDS011;11619;50.140;8.518;2023-11-21T13:43:29;3.17;;;2.22;;
22904;SDS011;11619;50.140;8.518;2023-11-21T13:45:56;4.15;;;2.17;;
22904;SDS011;11619;50.140;8.518;2023-11-21T13:48:26;3.10;;;2.17;;
22904;SDS011;11619;50.140;8.518;2023-11-21T13:50:57;4.55;;;2.70;;
22904;SDS011;11619;50.140;8.518;2023-11-21T13:53:27;4.13;;;2.55;;
22904;SDS011;11619;50.140;8.518;2023-11-21T13:55:53;4.05;;;2.13;;
22904;SDS011;11619;50.140;8.518;2023-11-21T13:58:21;4.28;;;2.50;;
22904;SDS011;11619;50.140;8.518;2023-11-21T14:01:12;4.47;;;2.50;;
22904;SDS011;11619;50.140;8.518;2023-11-21T14:03:59;8.75;;;3.00;;
22904;SDS011;11619;50.140;8.518;2023-11-21T14:06:46;4.50;;;2.53;;
22904;SDS011;11619;50.140;8.518;2023-11-21T14:09:16;4.63;;;2.50;;
22904;SDS011;11619;50.140;8.518;2023-11-21T14:11:59;3.42;;;2.33;;
22904;SDS011;11619;50.140;8.518;2023-11-21T14:14:26;4.47;;;2.83;;
22904;SDS011;11619;50.140;8.518;2023-11-21T14:16:54;3.35;;;2.35;;
22904;SDS011;11619;50.140;8.518;2023-11-21T14:19:25;3.17;;;2.35;;
22904;SDS011;11619;50.140;8.518;2023-11-21T14:21:59;5.60;;;2.90;;
22904;SDS011;11619;50.140;8.518;2023-11-21T14:24:25;6.45;;;2.65;;
22904;SDS011;11619;50.140;8.518;2023-11-21T14:26:52;6.82;;;2.88;;
22904;SDS011;11619;50.140;8.518;2023-11-21T14:29:19;4.70;;;3.00;;
22904;SDS011;11619;50.140;8.518;2023-11-21T14:31:50;9.55;;;2.80;;
22904;SDS011;11619;50.140;8.518;2023-11-21T14:34:17;4.15;;;2.90;;
22904;SDS011;11619;50.140;8.518;2023-11-21T14:36:48;4.90;;;2.67;;
22904;SDS011;11619;50.140;8.518;2023-11-21T14:39:15;3.47;;;2.45;;
22904;SDS011;11619;50.140;8.518;2023-11-21T14:41:50;5.78;;;2.60;;
22904;SDS011;11619;50.140;8.518;2023-11-21T14:44:16;3.85;;;2.70;;
22904;SDS011;11619;50.140;8.518;2023-11-21T14:46:43;6.93;;;2.53;;
22904;SDS011;11619;50.140;8.518;2023-11-21T14:49:16;4.57;;;2.78;;
22904;SDS011;11619;50.140;8.518;2023-11-21T14:51:52;3.60;;;2.53;;
22904;SDS011;11619;50.140;8.518;2023-11-21T14:54:30;4.28;;;2.60;;
22904;SDS011;11619;50.140;8.518;2023-11-21T14:57:07;6.28;;;3.03;;
22904;SDS011;11619;50.140;8.518;2023-11-21T14:59:44;4.55;;;3.03;;
22904;SDS011;11619;50.140;8.518;2023-11-21T15:02:24;3.92;;;2.33;;
22904;SDS011;11619;50.140;8.518;2023-11-21T15:05:10;3.83;;;2.50;;
22904;SDS011;11619;50.140;8.518;2023-11-21T15:07:41;4.00;;;2.63;;
22904;SDS011;11619;50.140;8.518;2023-11-21T15:10:07;4.20;;;2.80;;
22904;SDS011;11619;50.140;8.518;2023-11-21T15:12:42;4.47;;;2.90;;
22904;SDS011;11619;50.140;8.518;2023-11-21T15:15:10;5.18;;;2.95;;